createdAt,value
2022-11-14T00:01:13.020Z,2.87
2022-11-14T00:04:00.540Z,3.43
2022-11-14T00:06:48.030Z,2.97
2022-11-14T00:09:35.583Z,7.40
2022-11-14T00:12:23.074Z,2.93
2022-11-14T00:15:11.878Z,2.43
2022-11-14T00:17:59.337Z,4.40
2022-11-14T00:20:53.749Z,13.13
2022-11-14T00:23:41.288Z,2.87
2022-11-14T00:26:29.121Z,3.90
2022-11-14T00:29:16.767Z,3.50
2022-11-14T00:32:04.566Z,3.57
2022-11-14T00:34:52.042Z,5.37
2022-11-14T00:37:39.521Z,7.27
2022-11-14T00:40:27.115Z,3.57
2022-11-14T00:43:15.258Z,3.10
2022-11-14T00:46:02.742Z,8.00
2022-11-14T00:48:50.210Z,5.43
2022-11-14T00:51:37.675Z,4.07
2022-11-14T00:54:26.830Z,4.87
2022-11-14T00:57:14.259Z,5.27
2022-11-14T01:00:01.812Z,3.07
2022-11-14T01:02:49.401Z,3.40
2022-11-14T01:05:50.060Z,3.90
2022-11-14T01:08:37.661Z,5.13
2022-11-14T01:11:25.195Z,4.27
2022-11-14T01:14:12.680Z,4.57
2022-11-14T01:17:00.158Z,3.80
2022-11-14T01:19:47.625Z,4.00
2022-11-14T01:22:35.150Z,4.73
2022-11-14T01:25:22.650Z,4.53
2022-11-14T01:28:13.944Z,5.63
2022-11-14T01:31:22.325Z,4.73
2022-11-14T01:34:10.371Z,5.87
2022-11-14T01:36:57.953Z,4.23
2022-11-14T01:39:45.415Z,4.37
2022-11-14T01:42:32.971Z,4.27
2022-11-14T01:46:06.437Z,5.40
2022-11-14T01:48:56.572Z,7.27
2022-11-14T01:52:24.494Z,5.03
2022-11-14T01:55:12.092Z,3.87
2022-11-14T01:58:00.905Z,3.80
2022-11-14T02:00:48.426Z,3.13
2022-11-14T02:03:40.097Z,8.27
2022-11-14T02:06:31.638Z,6.13
2022-11-14T02:09:19.191Z,5.33
2022-11-14T02:12:12.533Z,4.27
2022-11-14T02:15:01.053Z,4.67
2022-11-14T02:17:48.664Z,5.77
2022-11-14T02:20:43.331Z,4.17
2022-11-14T02:23:32.891Z,5.27
2022-11-14T02:26:22.546Z,3.97
2022-11-14T02:29:11.586Z,6.33
2022-11-14T02:31:59.962Z,4.13
2022-11-14T02:34:47.422Z,4.73
2022-11-14T02:37:34.962Z,3.97
2022-11-14T02:40:22.461Z,4.23
2022-11-14T02:43:10.011Z,4.37
2022-11-14T02:46:00.310Z,4.20
2022-11-14T02:48:51.831Z,4.83
2022-11-14T02:51:39.815Z,8.23
2022-11-14T02:54:27.260Z,4.93
2022-11-14T02:57:14.661Z,6.23
2022-11-14T03:00:02.253Z,4.27
2022-11-14T03:02:49.713Z,5.90
2022-11-14T03:05:37.300Z,4.93
2022-11-14T03:08:24.750Z,4.50
2022-11-14T03:11:12.259Z,4.60
2022-11-14T03:14:02.826Z,5.23
2022-11-14T03:16:50.305Z,5.33
2022-11-14T03:19:37.741Z,4.63
2022-11-14T03:22:25.480Z,5.30
2022-11-14T03:25:12.991Z,4.47
2022-11-14T03:28:00.532Z,4.37
2022-11-14T03:30:48.095Z,4.80
2022-11-14T03:33:36.497Z,4.50
2022-11-14T03:36:24.152Z,4.50
2022-11-14T03:39:11.716Z,4.80
2022-11-14T03:41:59.296Z,5.47
2022-11-14T03:44:46.927Z,4.37
2022-11-14T03:47:34.425Z,3.87
2022-11-14T03:50:21.872Z,3.33
2022-11-14T03:53:10.365Z,6.77
2022-11-14T03:55:58.042Z,4.00
2022-11-14T03:58:45.546Z,4.60
2022-11-14T04:01:33.080Z,4.50
2022-11-14T04:04:21.165Z,3.80
2022-11-14T04:07:08.678Z,4.47
2022-11-14T04:09:56.221Z,4.33
2022-11-14T04:12:52.454Z,4.70
2022-11-14T04:15:40.136Z,3.90
2022-11-14T04:18:28.752Z,3.73
2022-11-14T04:21:16.592Z,5.13
2022-11-14T04:24:09.919Z,5.27
2022-11-14T04:26:58.937Z,3.70
2022-11-14T04:29:46.378Z,4.80
2022-11-14T04:32:33.902Z,6.83
2022-11-14T04:35:21.391Z,3.70
2022-11-14T04:38:10.872Z,4.03
2022-11-14T04:40:58.436Z,4.53
2022-11-14T04:43:50.635Z,4.97
2022-11-14T04:46:38.429Z,5.60
2022-11-14T04:49:25.868Z,3.97
2022-11-14T04:52:13.377Z,4.07
2022-11-14T04:55:00.954Z,5.60
2022-11-14T04:57:48.632Z,4.57
2022-11-14T05:00:36.152Z,3.97
2022-11-14T05:03:24.762Z,4.57
2022-11-14T05:06:12.251Z,3.43
2022-11-14T05:08:59.701Z,4.97
2022-11-14T05:11:47.201Z,5.23
2022-11-14T05:14:34.652Z,4.00
2022-11-14T05:17:22.350Z,4.97
2022-11-14T05:20:10.812Z,5.00
2022-11-14T05:22:58.750Z,6.23
2022-11-14T05:25:46.733Z,4.43
2022-11-14T05:28:34.533Z,4.43
2022-11-14T05:31:21.937Z,4.30
2022-11-14T05:34:09.372Z,4.07
2022-11-14T05:36:56.817Z,5.83
2022-11-14T05:39:44.293Z,4.97
2022-11-14T05:42:32.061Z,4.40
2022-11-14T05:45:19.552Z,2.83
2022-11-14T05:48:07.007Z,5.30
2022-11-14T05:51:00.154Z,4.70
2022-11-14T05:53:47.578Z,5.17
2022-11-14T05:56:36.460Z,3.67
2022-11-14T05:59:24.135Z,3.90
2022-11-14T06:02:11.712Z,4.80
2022-11-14T06:04:59.369Z,4.13
2022-11-14T06:07:47.142Z,4.77
2022-11-14T06:10:37.787Z,4.90
2022-11-14T06:13:25.317Z,5.40
2022-11-14T06:16:21.891Z,4.47
2022-11-14T06:19:09.377Z,3.73
2022-11-14T06:21:56.866Z,3.47
2022-11-14T06:24:44.258Z,4.13
2022-11-14T06:27:32.046Z,4.73
2022-11-14T06:30:19.641Z,4.63
2022-11-14T06:33:07.319Z,4.80
2022-11-14T06:36:06.682Z,6.53
2022-11-14T06:38:54.295Z,3.30
2022-11-14T06:41:41.739Z,5.10
2022-11-14T06:44:31.064Z,4.53
2022-11-14T06:47:18.786Z,4.67
2022-11-14T06:50:07.225Z,3.40
2022-11-14T06:52:57.037Z,4.90
2022-11-14T06:55:56.245Z,5.27
2022-11-14T06:58:47.688Z,3.73
2022-11-14T07:01:35.238Z,3.63
2022-11-14T07:04:22.738Z,3.63
2022-11-14T07:07:10.264Z,5.03
2022-11-14T07:09:58.982Z,3.97
2022-11-14T07:12:46.472Z,6.07
2022-11-14T07:15:33.883Z,4.60
2022-11-14T07:18:21.597Z,4.87
2022-11-14T07:21:09.273Z,4.27
2022-11-14T07:23:57.837Z,3.50
2022-11-14T07:26:46.716Z,3.47
2022-11-14T07:29:34.687Z,4.13
2022-11-14T07:32:22.212Z,5.33
2022-11-14T07:35:09.813Z,4.83
2022-11-14T07:38:06.534Z,4.67
2022-11-14T07:41:07.137Z,4.73
2022-11-14T07:43:54.611Z,5.03
2022-11-14T07:46:42.077Z,4.43
2022-11-14T07:49:29.558Z,4.07
2022-11-14T07:52:16.972Z,4.37
2022-11-14T07:55:04.856Z,5.40
2022-11-14T07:57:59.056Z,4.33
2022-11-14T08:00:46.706Z,4.20
2022-11-14T08:03:35.332Z,4.67
2022-11-14T08:06:22.916Z,4.57
2022-11-14T08:09:10.451Z,3.90
2022-11-14T08:11:57.950Z,4.53
2022-11-14T08:14:45.458Z,4.33
2022-11-14T08:17:33.172Z,4.30
2022-11-14T08:20:20.622Z,5.67
2022-11-14T08:23:08.147Z,3.80
2022-11-14T08:25:55.613Z,4.03
2022-11-14T08:28:43.091Z,4.80
2022-11-14T08:31:30.577Z,4.80
2022-11-14T08:34:18.072Z,4.93
2022-11-14T08:37:05.562Z,4.97
2022-11-14T08:39:53.079Z,5.40
2022-11-14T08:42:40.652Z,5.57
2022-11-14T08:45:29.093Z,4.90
2022-11-14T08:48:16.643Z,4.30
2022-11-14T08:51:06.916Z,4.17
2022-11-14T08:53:54.431Z,5.00
2022-11-14T08:56:41.972Z,4.63
2022-11-14T08:59:29.466Z,4.27
2022-11-14T09:02:17.064Z,4.23
2022-11-14T09:05:05.045Z,4.13
2022-11-14T09:07:52.676Z,5.40
2022-11-14T09:10:40.178Z,5.30
2022-11-14T09:13:28.234Z,5.23
2022-11-14T09:16:16.048Z,3.73
2022-11-14T09:19:03.586Z,4.30
2022-11-14T09:21:51.112Z,4.40
2022-11-14T09:24:38.567Z,3.93
2022-11-14T09:27:27.788Z,4.37
2022-11-14T09:30:15.966Z,4.40
2022-11-14T09:33:11.073Z,4.27
2022-11-14T09:36:01.694Z,4.93
2022-11-14T09:38:51.767Z,4.17
2022-11-14T09:42:26.792Z,4.30
2022-11-14T09:45:17.441Z,4.57
2022-11-14T09:48:21.317Z,4.13
2022-11-14T09:51:17.373Z,4.23
2022-11-14T09:54:32.447Z,4.77
2022-11-14T09:57:21.450Z,3.60
2022-11-14T10:00:21.520Z,4.77
2022-11-14T10:03:20.992Z,3.80
2022-11-14T10:06:18.981Z,3.57
2022-11-14T10:10:03.451Z,3.63
2022-11-14T10:13:28.773Z,3.90
2022-11-14T10:16:34.612Z,4.37
2022-11-14T10:19:49.893Z,4.47
2022-11-14T10:23:01.546Z,3.87
2022-11-14T10:26:02.322Z,5.00
2022-11-14T10:29:15.787Z,3.63
2022-11-14T10:32:41.494Z,3.90
2022-11-14T10:35:41.713Z,3.17
2022-11-14T10:39:13.181Z,3.73
2022-11-14T10:42:11.624Z,2.97
2022-11-14T10:45:17.931Z,3.40
2022-11-14T10:48:25.731Z,3.70
2022-11-14T10:51:37.832Z,3.47
2022-11-14T10:54:34.475Z,3.70
2022-11-14T10:57:23.609Z,2.50
2022-11-14T11:00:19.126Z,3.43
2022-11-14T11:03:07.827Z,3.27
2022-11-14T11:05:58.503Z,3.57
2022-11-14T11:09:04.857Z,2.73
2022-11-14T11:12:01.730Z,2.77
2022-11-14T11:15:13.542Z,2.57
2022-11-14T11:18:30.294Z,2.40
2022-11-14T11:21:24.148Z,2.53
2022-11-14T11:24:11.763Z,2.63
2022-11-14T11:27:29.020Z,3.00
2022-11-14T11:30:23.345Z,2.07
2022-11-14T11:33:25.732Z,2.13
2022-11-14T11:36:19.606Z,2.00
2022-11-14T11:39:24.138Z,2.33
2022-11-14T11:43:36.789Z,2.20
2022-11-14T11:45:51.205Z,2.63
2022-11-14T11:48:40.122Z,2.63
2022-11-14T11:51:29.250Z,2.30
2022-11-14T11:54:27.177Z,2.07
2022-11-14T11:57:21.890Z,2.17
2022-11-14T12:00:20.474Z,1.60
2022-11-14T12:03:20.383Z,2.47
2022-11-14T12:06:27.405Z,2.25
2022-11-14T12:10:03.499Z,1.97
2022-11-14T12:12:44.377Z,1.98
2022-11-14T12:15:51.395Z,2.33
2022-11-14T12:18:59.555Z,2.10
2022-11-14T12:22:35.682Z,2.47
2022-11-14T12:25:42.331Z,2.30
2022-11-14T12:29:07.351Z,2.00
2022-11-14T12:32:07.062Z,1.88
2022-11-14T12:34:55.247Z,2.00
2022-11-14T12:37:55.265Z,2.05
2022-11-14T12:40:58.401Z,2.22
2022-11-14T12:43:47.800Z,2.15
2022-11-14T12:47:04.936Z,2.42
2022-11-14T12:49:56.638Z,2.47
2022-11-14T12:52:54.110Z,2.75
2022-11-14T12:55:53.785Z,3.20
2022-11-14T12:59:20.828Z,2.42
2022-11-14T13:02:31.857Z,2.75
2022-11-14T13:06:03.462Z,2.30
2022-11-14T13:09:19.827Z,2.33
2022-11-14T13:12:56.473Z,2.67
2022-11-14T13:16:13.059Z,2.13
2022-11-14T13:19:41.008Z,2.70
2022-11-14T13:22:41.107Z,2.78
2022-11-14T13:25:29.283Z,2.30
2022-11-14T13:28:52.892Z,2.10
2022-11-14T13:31:50.645Z,3.08
2022-11-14T13:34:50.985Z,2.90
2022-11-14T13:38:12.877Z,2.67
2022-11-14T13:41:46.621Z,2.55
2022-11-14T13:45:21.132Z,2.65
2022-11-14T13:48:29.703Z,2.50
2022-11-14T13:54:29.387Z,2.83
2022-11-14T13:57:54.263Z,2.65
2022-11-14T14:01:02.959Z,3.28
2022-11-14T14:04:23.741Z,2.67
2022-11-14T14:07:35.355Z,2.90
2022-11-14T14:10:47.912Z,2.50
2022-11-14T14:13:59.869Z,2.27
2022-11-14T14:17:07.466Z,2.70
2022-11-14T14:20:20.348Z,2.43
2022-11-14T14:23:27.633Z,2.45
2022-11-14T14:26:36.004Z,2.45
2022-11-14T14:29:45.408Z,2.38
2022-11-14T14:32:33.608Z,1.85
2022-11-14T14:35:35.617Z,2.20
2022-11-14T14:38:29.343Z,1.90
2022-11-14T14:41:20.213Z,2.50
2022-11-14T14:44:32.016Z,2.17
2022-11-14T14:47:42.563Z,2.17
2022-11-14T14:50:48.361Z,2.50
2022-11-14T14:53:36.838Z,2.30
2022-11-14T14:56:25.222Z,2.00
2022-11-14T14:59:23.294Z,2.30
2022-11-14T15:02:20.632Z,2.43
2022-11-14T15:05:08.608Z,2.10
2022-11-14T15:08:00.681Z,1.70
2022-11-14T15:10:48.487Z,2.45
2022-11-14T15:13:38.773Z,1.60
2022-11-14T15:16:27.607Z,1.87
2022-11-14T15:19:19.284Z,1.90
2022-11-14T15:22:10.868Z,1.43
2022-11-14T15:25:12.712Z,1.90
2022-11-14T15:28:00.986Z,2.27
2022-11-14T15:31:05.510Z,1.87
2022-11-14T15:34:29.443Z,1.43
2022-11-14T15:37:16.887Z,2.20
2022-11-14T15:40:22.540Z,2.03
2022-11-14T15:43:44.173Z,2.40
2022-11-14T15:46:34.415Z,2.00
2022-11-14T15:49:27.562Z,1.93
2022-11-14T15:52:47.745Z,1.40
2022-11-14T15:55:36.082Z,2.03
2022-11-14T15:58:30.648Z,2.10
2022-11-14T16:01:26.150Z,1.63
2022-11-14T16:04:23.498Z,2.00
2022-11-14T16:07:17.051Z,1.70
2022-11-14T16:10:16.849Z,1.30
2022-11-14T16:13:04.493Z,1.80
2022-11-14T16:15:52.048Z,1.77
2022-11-14T16:18:39.590Z,1.57
2022-11-14T16:21:27.182Z,1.93
2022-11-14T16:24:22.465Z,1.90
2022-11-14T16:27:10.222Z,1.63
2022-11-14T16:29:57.675Z,1.80
2022-11-14T16:32:47.840Z,1.77
2022-11-14T16:35:35.437Z,1.50
2022-11-14T16:38:22.936Z,1.67
2022-11-14T16:41:13.702Z,1.60
2022-11-14T16:44:01.248Z,2.03
2022-11-14T16:46:48.687Z,2.00
2022-11-14T16:49:36.189Z,2.73
2022-11-14T16:52:23.998Z,1.70
2022-11-14T16:55:12.409Z,1.50
2022-11-14T16:57:59.973Z,1.67
2022-11-14T17:00:47.552Z,1.60
2022-11-14T17:03:35.023Z,2.10
2022-11-14T17:06:22.507Z,1.73
2022-11-14T17:09:14.360Z,1.70
2022-11-14T17:12:01.872Z,1.70
2022-11-14T17:14:49.303Z,1.93
2022-11-14T17:17:36.678Z,2.07
2022-11-14T17:20:24.172Z,2.20
2022-11-14T17:23:11.581Z,1.83
2022-11-14T17:26:12.670Z,1.53
2022-11-14T17:29:00.209Z,1.30
2022-11-14T17:31:47.663Z,2.20
2022-11-14T17:34:35.238Z,1.70
2022-11-14T17:37:22.650Z,1.90
2022-11-14T17:40:15.311Z,1.47
2022-11-14T17:43:03.698Z,1.83
2022-11-14T17:45:58.010Z,1.67
2022-11-14T17:48:45.882Z,1.67
2022-11-14T17:51:33.404Z,1.53
2022-11-14T17:54:20.969Z,2.10
2022-11-14T17:57:08.446Z,2.10
2022-11-14T17:59:56.043Z,1.90
2022-11-14T18:02:43.544Z,2.13
2022-11-14T18:05:31.020Z,2.27
2022-11-14T18:08:18.637Z,2.00
2022-11-14T18:11:11.597Z,2.03
2022-11-14T18:13:59.202Z,2.00
2022-11-14T18:17:11.054Z,2.10
2022-11-14T18:19:56.317Z,1.73
2022-11-14T18:22:44.282Z,1.83
2022-11-14T18:25:31.753Z,2.30
2022-11-14T18:28:19.163Z,2.03
2022-11-14T18:31:10.745Z,2.17
2022-11-14T18:33:58.686Z,1.97
2022-11-14T18:36:46.149Z,2.33
2022-11-14T18:39:33.767Z,1.93
2022-11-14T18:42:21.326Z,2.13
2022-11-14T18:45:09.423Z,1.93
2022-11-14T18:47:56.887Z,2.40
2022-11-14T18:50:44.317Z,1.73
2022-11-14T18:53:36.920Z,2.13
2022-11-14T18:56:25.573Z,1.80
2022-11-14T18:59:13.199Z,1.93
2022-11-14T19:02:00.731Z,2.37
2022-11-14T19:04:48.230Z,1.97
2022-11-14T19:07:35.690Z,2.50
2022-11-14T19:10:23.148Z,1.87
2022-11-14T19:13:10.626Z,2.70
2022-11-14T19:16:06.407Z,2.07
2022-11-14T19:18:55.850Z,2.17
2022-11-14T19:21:43.976Z,2.63
2022-11-14T19:24:31.473Z,1.87
2022-11-14T19:27:19.002Z,3.03
2022-11-14T19:30:07.923Z,2.57
2022-11-14T19:32:55.424Z,5.37
2022-11-14T19:35:42.873Z,3.20
2022-11-14T19:38:30.332Z,2.80
2022-11-14T19:41:21.583Z,3.93
2022-11-14T19:44:09.237Z,3.63
2022-11-14T19:46:56.682Z,3.50
2022-11-14T19:49:44.255Z,3.73
2022-11-14T19:52:31.657Z,3.23
2022-11-14T19:55:19.977Z,2.90
2022-11-14T19:58:07.406Z,3.83
2022-11-14T20:01:05.308Z,3.13
2022-11-14T20:04:02.299Z,3.20
2022-11-14T20:06:49.773Z,3.93
2022-11-14T20:09:37.374Z,3.30
2022-11-14T20:12:24.922Z,3.97
2022-11-14T20:15:12.431Z,5.73
2022-11-14T20:17:59.887Z,3.73
2022-11-14T20:20:47.398Z,4.70
2022-11-14T20:23:36.483Z,4.03
2022-11-14T20:26:24.439Z,3.83
2022-11-14T20:29:11.919Z,2.90
2022-11-14T20:31:59.599Z,3.47
2022-11-14T20:34:47.148Z,3.70
2022-11-14T20:37:34.641Z,2.63
2022-11-14T20:40:22.412Z,2.47
2022-11-14T20:43:09.921Z,3.00
2022-11-14T20:46:04.174Z,3.67
2022-11-14T20:48:51.793Z,3.23
2022-11-14T20:51:39.391Z,3.53
2022-11-14T20:54:27.053Z,2.70
2022-11-14T20:57:14.628Z,2.93
2022-11-14T21:00:02.123Z,3.37
2022-11-14T21:02:50.067Z,3.57
2022-11-14T21:05:40.939Z,3.07
2022-11-14T21:08:30.122Z,3.53
2022-11-14T21:11:18.422Z,3.10
2022-11-14T21:14:06.174Z,4.43
2022-11-14T21:16:53.643Z,4.73
2022-11-14T21:19:41.147Z,4.00
2022-11-14T21:22:28.567Z,3.10
2022-11-14T21:25:16.053Z,3.80
2022-11-14T21:28:03.651Z,3.70
2022-11-14T21:30:51.088Z,3.93
2022-11-14T21:33:38.592Z,3.80
2022-11-14T21:36:45.429Z,3.27
2022-11-14T21:39:33.702Z,3.53
2022-11-14T21:42:22.768Z,4.77
2022-11-14T21:45:11.031Z,3.67
2022-11-14T21:47:58.482Z,4.00
2022-11-14T21:50:45.949Z,4.37
2022-11-14T21:53:35.122Z,3.93
2022-11-14T21:56:29.608Z,3.57
2022-11-14T21:59:21.581Z,4.10
2022-11-14T22:02:31.666Z,4.33
2022-11-14T22:05:19.232Z,3.73
2022-11-14T22:08:06.659Z,3.90
2022-11-14T22:11:00.492Z,4.07
2022-11-14T22:13:48.572Z,4.27
2022-11-14T22:16:36.277Z,4.03
2022-11-14T22:19:24.457Z,3.53
2022-11-14T22:22:11.941Z,4.03
2022-11-14T22:24:59.952Z,3.77
2022-11-14T22:27:47.663Z,4.57
2022-11-14T22:30:35.119Z,6.33
2022-11-14T22:33:22.577Z,4.90
2022-11-14T22:36:19.273Z,4.17
2022-11-14T22:39:06.766Z,4.47
2022-11-14T22:41:54.237Z,4.07
2022-11-14T22:44:41.728Z,3.83
2022-11-14T22:47:29.197Z,4.60
2022-11-14T22:50:16.888Z,3.73
2022-11-14T22:53:04.334Z,4.80
2022-11-14T22:55:51.991Z,3.17
2022-11-14T22:58:42.913Z,3.77
2022-11-14T23:01:32.671Z,4.37
2022-11-14T23:04:20.102Z,3.90
2022-11-14T23:07:07.693Z,3.70
2022-11-14T23:09:55.163Z,4.40
2022-11-14T23:12:42.642Z,3.73
2022-11-14T23:15:30.422Z,4.17
2022-11-14T23:18:17.903Z,3.93
2022-11-14T23:21:11.281Z,3.80
2022-11-14T23:24:02.807Z,3.40
2022-11-14T23:26:50.391Z,3.27
2022-11-14T23:29:37.806Z,2.90
2022-11-14T23:32:27.996Z,3.00
2022-11-14T23:35:15.613Z,5.23
2022-11-14T23:38:04.913Z,4.77
2022-11-14T23:40:57.985Z,2.97
2022-11-14T23:43:46.749Z,3.47
2022-11-14T23:46:34.217Z,3.40
2022-11-14T23:49:21.698Z,3.20
2022-11-14T23:52:09.153Z,4.10
2022-11-14T23:54:56.634Z,3.80
2022-11-14T23:57:44.119Z,3.70
